createdAt,value
2019-03-27T00:01:45.926Z,4.98
2019-03-27T00:06:50.572Z,5.11
2019-03-27T00:11:55.445Z,5.13
2019-03-27T00:17:00.208Z,5.24
2019-03-27T00:22:04.956Z,5.12
2019-03-27T00:27:09.818Z,5.09
2019-03-27T00:37:25.485Z,5.99
2019-03-27T00:42:30.219Z,6.32
2019-03-27T00:47:34.949Z,6.48
2019-03-27T00:52:39.625Z,6.60
2019-03-27T00:57:44.386Z,6.69
2019-03-27T01:02:48.989Z,6.78
2019-03-27T01:07:53.590Z,6.87
2019-03-27T01:12:58.246Z,6.94
2019-03-27T01:18:02.914Z,6.96
2019-03-27T01:23:07.633Z,6.98
2019-03-27T01:28:12.275Z,6.92
2019-03-27T01:33:16.822Z,6.92
2019-03-27T01:38:21.405Z,6.91
2019-03-27T01:43:25.933Z,6.96
2019-03-27T01:48:30.522Z,6.99
2019-03-27T01:53:35.172Z,7.00
2019-03-27T01:58:39.792Z,6.96
2019-03-27T02:03:44.342Z,7.01
2019-03-27T02:08:48.933Z,7.07
2019-03-27T02:13:53.673Z,7.06
2019-03-27T02:18:59.348Z,7.04
2019-03-27T02:24:04.138Z,6.92
2019-03-27T02:29:08.928Z,6.55
2019-03-27T02:34:13.525Z,6.27
2019-03-27T02:39:18.133Z,6.08
2019-03-27T02:44:22.800Z,6.07
2019-03-27T02:49:27.587Z,6.02
2019-03-27T02:54:32.127Z,6.14
2019-03-27T02:59:36.828Z,6.07
2019-03-27T03:04:41.491Z,5.87
2019-03-27T03:09:46.090Z,5.62
2019-03-27T03:14:50.777Z,5.48
2019-03-27T03:19:55.385Z,5.47
2019-03-27T03:24:59.945Z,5.39
2019-03-27T03:30:05.852Z,5.50
2019-03-27T03:35:10.908Z,5.71
2019-03-27T03:40:16.304Z,5.81
2019-03-27T03:45:21.090Z,5.90
2019-03-27T03:50:42.193Z,6.18
2019-03-27T03:55:46.774Z,6.44
2019-03-27T04:00:52.146Z,6.53
2019-03-27T04:05:56.687Z,6.53
2019-03-27T04:11:01.573Z,6.58
2019-03-27T04:16:06.503Z,6.63
2019-03-27T04:21:11.133Z,6.71
2019-03-27T04:26:15.765Z,6.77
2019-03-27T04:31:20.305Z,6.78
2019-03-27T04:36:25.468Z,6.76
2019-03-27T04:41:29.973Z,6.75
2019-03-27T04:46:34.504Z,6.81
2019-03-27T04:51:39.186Z,6.84
2019-03-27T04:56:43.890Z,6.81
2019-03-27T05:01:48.663Z,6.84
2019-03-27T05:06:53.458Z,6.83
2019-03-27T05:11:58.250Z,6.84
2019-03-27T05:17:03.088Z,6.84
2019-03-27T05:22:07.628Z,6.77
2019-03-27T05:27:12.223Z,6.72
2019-03-27T05:32:16.813Z,6.72
2019-03-27T05:37:21.545Z,6.73
2019-03-27T05:42:26.088Z,6.74
2019-03-27T05:47:30.857Z,6.79
2019-03-27T05:52:35.465Z,6.82
2019-03-27T05:57:40.238Z,6.82
2019-03-27T06:02:44.843Z,6.81
2019-03-27T06:07:49.488Z,6.83
2019-03-27T06:12:54.233Z,6.85
2019-03-27T06:18:12.255Z,6.86
2019-03-27T06:23:05.364Z,6.87
2019-03-27T06:28:10.241Z,6.88
2019-03-27T06:33:14.943Z,7.02
2019-03-27T06:38:19.664Z,7.20
2019-03-27T06:43:24.323Z,7.41
2019-03-27T06:48:28.982Z,7.79
2019-03-27T06:53:36.569Z,8.02
2019-03-27T06:58:53.837Z,8.40
2019-03-27T07:03:48.035Z,8.66
2019-03-27T07:08:52.885Z,8.91
2019-03-27T07:13:57.698Z,9.13
2019-03-27T07:19:02.469Z,9.52
2019-03-27T07:24:07.054Z,9.93
2019-03-27T07:29:11.890Z,9.99
2019-03-27T07:34:16.900Z,9.74
2019-03-27T07:39:21.841Z,9.67
2019-03-27T07:44:26.568Z,9.70
2019-03-27T07:49:31.303Z,9.71
2019-03-27T07:54:35.889Z,9.63
2019-03-27T07:59:40.686Z,9.62
2019-03-27T08:04:47.803Z,9.55
2019-03-27T08:09:52.658Z,9.49
2019-03-27T08:14:57.483Z,9.51
2019-03-27T08:20:02.550Z,9.52
2019-03-27T08:25:08.181Z,9.61
2019-03-27T08:30:13.557Z,9.67
2019-03-27T08:35:18.813Z,9.70
2019-03-27T08:40:23.858Z,9.70
2019-03-27T08:45:28.710Z,9.70
2019-03-27T08:50:33.734Z,9.92
2019-03-27T08:55:38.673Z,10.58
2019-03-27T09:00:48.923Z,11.24
2019-03-27T09:05:53.722Z,12.00
2019-03-27T09:10:58.433Z,12.58
2019-03-27T09:16:03.278Z,12.97
2019-03-27T09:21:08.154Z,13.00
2019-03-27T09:26:13.350Z,13.49
2019-03-27T09:31:18.323Z,13.56
2019-03-27T09:36:22.963Z,13.78
2019-03-27T09:41:27.933Z,14.13
2019-03-27T09:46:32.509Z,14.36
2019-03-27T09:51:37.073Z,14.67
2019-03-27T09:56:41.722Z,14.77
2019-03-27T10:01:46.310Z,15.22
2019-03-27T10:06:51.569Z,14.98
2019-03-27T10:11:57.188Z,15.24
2019-03-27T10:17:02.130Z,15.09
2019-03-27T10:22:07.022Z,14.99
2019-03-27T10:27:11.988Z,14.30
2019-03-27T10:32:17.073Z,15.15
2019-03-27T10:37:21.872Z,14.81
2019-03-27T10:42:26.518Z,14.45
2019-03-27T10:47:31.613Z,13.22
2019-03-27T10:52:36.355Z,13.75
2019-03-27T10:57:41.673Z,13.72
2019-03-27T11:02:46.262Z,14.07
2019-03-27T11:07:51.263Z,15.02
2019-03-27T11:12:58.703Z,14.75
2019-03-27T11:18:03.365Z,14.60
2019-03-27T11:23:08.906Z,13.92
2019-03-27T11:28:13.639Z,13.53
2019-03-27T11:33:18.383Z,14.52
2019-03-27T11:38:23.123Z,14.00
2019-03-27T11:43:28.068Z,14.15
2019-03-27T11:48:32.612Z,14.30
2019-03-27T11:53:37.248Z,14.56
2019-03-27T11:58:41.952Z,14.74
2019-03-27T12:03:47.254Z,14.73
2019-03-27T12:08:51.862Z,14.68
2019-03-27T12:13:56.418Z,14.88
2019-03-27T12:19:01.634Z,15.03
2019-03-27T12:24:06.699Z,15.74
2019-03-27T12:29:11.323Z,15.70
2019-03-27T12:34:15.908Z,14.89
2019-03-27T12:39:20.951Z,15.56
2019-03-27T12:44:26.129Z,15.56
2019-03-27T12:49:30.954Z,15.49
2019-03-27T12:54:35.573Z,15.21
2019-03-27T12:59:43.362Z,14.76
2019-03-27T13:04:48.573Z,15.78
2019-03-27T13:09:53.419Z,16.33
2019-03-27T13:14:58.153Z,16.68
2019-03-27T13:20:03.690Z,16.01
2019-03-27T13:25:10.159Z,15.70
2019-03-27T13:30:18.824Z,15.10
2019-03-27T13:35:23.714Z,13.56
2019-03-27T13:40:28.918Z,13.56
2019-03-27T13:45:35.658Z,14.20
2019-03-27T13:50:40.217Z,14.30
2019-03-27T13:55:45.086Z,15.26
2019-03-27T14:00:50.020Z,16.46
2019-03-27T14:05:54.554Z,16.45
2019-03-27T14:10:59.328Z,16.50
2019-03-27T14:16:04.118Z,16.30
2019-03-27T14:21:08.716Z,15.21
2019-03-27T14:26:13.773Z,15.45
2019-03-27T14:31:18.707Z,14.71
2019-03-27T14:36:23.601Z,16.14
2019-03-27T14:41:28.283Z,15.99
2019-03-27T14:46:32.889Z,15.84
2019-03-27T14:51:38.080Z,15.83
2019-03-27T14:56:42.938Z,15.89
2019-03-27T15:01:47.973Z,16.11
2019-03-27T15:06:52.658Z,15.09
2019-03-27T15:11:57.314Z,15.77
2019-03-27T15:17:02.811Z,15.13
2019-03-27T15:22:21.448Z,15.29
2019-03-27T15:27:15.369Z,14.79
2019-03-27T15:32:20.091Z,15.38
2019-03-27T15:37:27.133Z,14.99
2019-03-27T15:42:31.907Z,14.71
2019-03-27T15:47:36.448Z,14.35
2019-03-27T15:52:41.592Z,14.58
2019-03-27T15:57:46.278Z,14.48
2019-03-27T16:02:51.074Z,14.78
2019-03-27T16:07:56.082Z,14.49
2019-03-27T16:13:00.808Z,13.80
2019-03-27T16:18:05.718Z,13.31
2019-03-27T16:23:10.603Z,13.16
2019-03-27T16:28:15.453Z,13.02
2019-03-27T16:33:22.118Z,13.04
2019-03-27T16:38:26.794Z,12.91
2019-03-27T16:43:31.629Z,12.86
2019-03-27T16:48:36.782Z,12.76
2019-03-27T16:53:41.928Z,12.64
2019-03-27T16:58:49.799Z,12.40
2019-03-27T17:03:54.737Z,12.33
2019-03-27T17:08:59.433Z,12.15
2019-03-27T17:14:04.019Z,11.98
2019-03-27T17:19:08.753Z,11.72
2019-03-27T17:24:13.343Z,11.72
2019-03-27T17:29:20.210Z,11.57
2019-03-27T17:34:25.042Z,11.40
2019-03-27T17:39:29.874Z,11.18
2019-03-27T17:44:34.510Z,11.10
2019-03-27T17:49:39.208Z,11.10
2019-03-27T17:54:43.956Z,10.88
2019-03-27T17:59:53.877Z,10.80
2019-03-27T18:04:58.718Z,10.69
2019-03-27T18:10:05.714Z,10.21
2019-03-27T18:15:10.523Z,10.23
2019-03-27T18:20:15.162Z,10.33
2019-03-27T18:25:20.198Z,10.15
2019-03-27T18:30:29.332Z,9.96
2019-03-27T18:35:34.159Z,9.73
2019-03-27T18:40:39.247Z,9.51
2019-03-27T18:45:44.173Z,9.30
2019-03-27T18:50:49.191Z,9.11
2019-03-27T18:55:54.193Z,8.86
2019-03-27T19:00:58.744Z,8.50
2019-03-27T19:06:03.491Z,8.24
2019-03-27T19:11:08.072Z,8.02
2019-03-27T19:16:13.071Z,7.92
2019-03-27T19:21:18.145Z,8.12
2019-03-27T19:26:23.023Z,8.21
2019-03-27T19:31:27.817Z,8.22
2019-03-27T19:36:32.736Z,8.15
2019-03-27T19:41:37.685Z,7.97
2019-03-27T19:46:45.591Z,7.84
2019-03-27T19:51:52.373Z,7.84
2019-03-27T19:56:59.391Z,7.72
2019-03-27T20:02:04.508Z,7.81
2019-03-27T20:07:09.291Z,7.51
2019-03-27T20:12:14.499Z,7.84
2019-03-27T20:17:19.292Z,8.09
2019-03-27T20:22:24.158Z,8.27
2019-03-27T20:27:28.833Z,8.34
2019-03-27T20:32:34.184Z,8.30
2019-03-27T20:37:38.971Z,8.35
2019-03-27T20:42:44.033Z,8.42
2019-03-27T20:47:48.912Z,8.42
2019-03-27T20:52:53.832Z,8.41
2019-03-27T20:58:01.731Z,8.43
2019-03-27T21:03:06.545Z,8.31
2019-03-27T21:08:11.532Z,8.06
2019-03-27T21:13:16.191Z,7.94
2019-03-27T21:18:23.872Z,7.67
2019-03-27T21:23:28.451Z,7.18
2019-03-27T21:28:35.312Z,6.95
2019-03-27T21:33:43.633Z,7.26
2019-03-27T21:38:48.792Z,7.24
2019-03-27T21:43:53.532Z,7.16
2019-03-27T21:48:58.350Z,7.25
2019-03-27T21:54:03.534Z,7.60
2019-03-27T21:59:08.272Z,7.69
2019-03-27T22:04:14.753Z,7.52
2019-03-27T22:09:19.696Z,7.62
2019-03-27T22:14:25.105Z,7.32
2019-03-27T22:19:29.992Z,6.99
2019-03-27T22:24:34.852Z,6.72
2019-03-27T22:29:39.532Z,7.13
2019-03-27T22:34:44.563Z,7.56
2019-03-27T22:39:49.572Z,7.85
2019-03-27T22:44:54.532Z,7.73
2019-03-27T22:49:59.974Z,7.60
2019-03-27T22:55:05.414Z,7.59
2019-03-27T23:00:10.752Z,7.52
2019-03-27T23:05:15.453Z,7.31
2019-03-27T23:10:20.084Z,7.06
2019-03-27T23:15:25.034Z,6.82
2019-03-27T23:20:29.764Z,6.62
2019-03-27T23:25:34.514Z,6.56
2019-03-27T23:30:39.143Z,6.64
2019-03-27T23:35:44.640Z,6.91
2019-03-27T23:40:49.668Z,6.88
2019-03-27T23:45:54.411Z,6.96
2019-03-27T23:50:59.327Z,7.08
2019-03-27T23:56:15.862Z,7.11
